Terminal Aerodrome Forecast
Issued by NWS Pueblo, CO

Home | Current Version | Previous Version | Text Only | Print | Product List | Glossary On
Versions: 1 2 3 4 5 6 7 8 9 10 11 12 13 14 15 16 17 18 19 20 21 22 23 24 25 26 27 28 29 30 31 32 33 34 35 36 37 38 39 40 41 42
000
FTUS45 KPUB 260807 AAB
TAFCOS
TAF AMD
KCOS 260807Z 2608/2706 29008KT P6SM VCTS SCT030CB BKN060
      TEMPO 2608/2609 VRB25G35KT 5SM TSRA BKN025CB
     FM260900 01007KT P6SM SCT070 BKN100
     FM261400 18008KT P6SM SCT030 BKN050
     FM261700 17015G25KT P6SM FEW070 SCT100 BKN130
     FM270400 35008KT P6SM SKC=

USA.gov is the U.S. government's official web portal to all federal, state and local government web resources and services.